sensor_id;sensor_type;location;lat;lon;timestamp;P1;durP1;ratioP1;P2;durP2;ratioP2
47429;SDS011;33181;49.246;7.372;2022-08-02T00:01:25;3.20;;;2.50;;
47429;SDS011;33181;49.246;7.372;2022-08-02T00:03:51;2.37;;;2.03;;
47429;SDS011;33181;49.246;7.372;2022-08-02T00:06:17;2.90;;;2.30;;
47429;SDS011;33181;49.246;7.372;2022-08-02T00:08:43;2.80;;;2.20;;
47429;SDS011;33181;49.246;7.372;2022-08-02T00:11:08;3.30;;;2.20;;
47429;SDS011;33181;49.246;7.372;2022-08-02T00:13:34;2.77;;;2.30;;
47429;SDS011;33181;49.246;7.372;2022-08-02T00:16:00;2.50;;;2.30;;
47429;SDS011;33181;49.246;7.372;2022-08-02T00:18:27;4.00;;;2.57;;
47429;SDS011;33181;49.246;7.372;2022-08-02T00:20:52;2.77;;;2.10;;
47429;SDS011;33181;49.246;7.372;2022-08-02T00:23:18;2.50;;;2.27;;
47429;SDS011;33181;49.246;7.372;2022-08-02T00:25:44;3.00;;;2.40;;
47429;SDS011;33181;49.246;7.372;2022-08-02T00:28:10;3.23;;;2.40;;
47429;SDS011;33181;49.246;7.372;2022-08-02T00:30:37;3.77;;;2.67;;
47429;SDS011;33181;49.246;7.372;2022-08-02T00:33:03;6.17;;;2.63;;
47429;SDS011;33181;49.246;7.372;2022-08-02T00:35:32;10.60;;;2.80;;
47429;SDS011;33181;49.246;7.372;2022-08-02T00:37:59;3.10;;;2.53;;
47429;SDS011;33181;49.246;7.372;2022-08-02T00:40:25;3.63;;;2.67;;
47429;SDS011;33181;49.246;7.372;2022-08-02T00:43:04;3.27;;;2.40;;
47429;SDS011;33181;49.246;7.372;2022-08-02T00:45:34;2.90;;;2.60;;
47429;SDS011;33181;49.246;7.372;2022-08-02T00:48:03;2.60;;;2.40;;
47429;SDS011;33181;49.246;7.372;2022-08-02T00:50:31;2.87;;;2.57;;
47429;SDS011;33181;49.246;7.372;2022-08-02T00:52:58;3.70;;;2.70;;
47429;SDS011;33181;49.246;7.372;2022-08-02T00:55:24;5.13;;;2.73;;
47429;SDS011;33181;49.246;7.372;2022-08-02T00:57:51;2.87;;;2.57;;
47429;SDS011;33181;49.246;7.372;2022-08-02T01:00:17;2.63;;;2.40;;
47429;SDS011;33181;49.246;7.372;2022-08-02T01:02:43;4.00;;;2.43;;
47429;SDS011;33181;49.246;7.372;2022-08-02T01:05:09;2.50;;;2.20;;
47429;SDS011;33181;49.246;7.372;2022-08-02T01:07:35;2.40;;;2.20;;
47429;SDS011;33181;49.246;7.372;2022-08-02T01:10:02;3.97;;;2.50;;
47429;SDS011;33181;49.246;7.372;2022-08-02T01:12:29;3.30;;;2.70;;
47429;SDS011;33181;49.246;7.372;2022-08-02T01:14:56;2.90;;;2.43;;
47429;SDS011;33181;49.246;7.372;2022-08-02T01:31:33;3.07;;;2.40;;
47429;SDS011;33181;49.246;7.372;2022-08-02T01:34:20;6.30;;;2.60;;
47429;SDS011;33181;49.246;7.372;2022-08-02T01:37:05;4.03;;;2.70;;
47429;SDS011;33181;49.246;7.372;2022-08-02T01:39:50;2.60;;;2.30;;
47429;SDS011;33181;49.246;7.372;2022-08-02T01:42:21;3.20;;;2.60;;
47429;SDS011;33181;49.246;7.372;2022-08-02T01:44:49;3.90;;;2.60;;
47429;SDS011;33181;49.246;7.372;2022-08-02T01:47:22;3.10;;;2.47;;
47429;SDS011;33181;49.246;7.372;2022-08-02T01:49:55;3.20;;;2.50;;
47429;SDS011;33181;49.246;7.372;2022-08-02T01:52:24;2.90;;;2.60;;
47429;SDS011;33181;49.246;7.372;2022-08-02T01:55:08;3.20;;;2.40;;
47429;SDS011;33181;49.246;7.372;2022-08-02T01:57:40;5.27;;;2.87;;
47429;SDS011;33181;49.246;7.372;2022-08-02T02:00:14;3.03;;;2.73;;
47429;SDS011;33181;49.246;7.372;2022-08-02T02:02:42;5.33;;;3.10;;
47429;SDS011;33181;49.246;7.372;2022-08-02T02:05:15;3.77;;;2.97;;
47429;SDS011;33181;49.246;7.372;2022-08-02T02:07:45;3.90;;;2.93;;
47429;SDS011;33181;49.246;7.372;2022-08-02T02:10:21;3.13;;;2.70;;
47429;SDS011;33181;49.246;7.372;2022-08-02T02:12:54;3.43;;;3.10;;
47429;SDS011;33181;49.246;7.372;2022-08-02T02:15:26;4.27;;;2.90;;
47429;SDS011;33181;49.246;7.372;2022-08-02T02:17:53;3.83;;;2.80;;
47429;SDS011;33181;49.246;7.372;2022-08-02T02:20:22;3.20;;;2.80;;
47429;SDS011;33181;49.246;7.372;2022-08-02T02:22:48;3.50;;;2.80;;
47429;SDS011;33181;49.246;7.372;2022-08-02T02:25:15;3.73;;;2.50;;
47429;SDS011;33181;49.246;7.372;2022-08-02T02:27:49;3.00;;;2.70;;
47429;SDS011;33181;49.246;7.372;2022-08-02T02:30:30;3.90;;;2.73;;
47429;SDS011;33181;49.246;7.372;2022-08-02T02:32:59;2.80;;;2.50;;
47429;SDS011;33181;49.246;7.372;2022-08-02T02:35:31;3.47;;;2.70;;
47429;SDS011;33181;49.246;7.372;2022-08-02T02:38:03;3.40;;;2.80;;
47429;SDS011;33181;49.246;7.372;2022-08-02T02:40:33;3.23;;;2.70;;
47429;SDS011;33181;49.246;7.372;2022-08-02T02:43:01;6.30;;;2.77;;
47429;SDS011;33181;49.246;7.372;2022-08-02T02:45:29;3.73;;;2.90;;
47429;SDS011;33181;49.246;7.372;2022-08-02T02:47:55;5.70;;;2.63;;
47429;SDS011;33181;49.246;7.372;2022-08-02T02:50:24;4.80;;;2.80;;
47429;SDS011;33181;49.246;7.372;2022-08-02T02:52:50;2.93;;;2.60;;
47429;SDS011;33181;49.246;7.372;2022-08-02T02:55:17;3.03;;;2.60;;
47429;SDS011;33181;49.246;7.372;2022-08-02T02:57:43;2.77;;;2.50;;
47429;SDS011;33181;49.246;7.372;2022-08-02T03:00:10;3.30;;;2.90;;
47429;SDS011;33181;49.246;7.372;2022-08-02T03:02:39;3.43;;;2.40;;
47429;SDS011;33181;49.246;7.372;2022-08-02T03:05:07;3.07;;;2.50;;
47429;SDS011;33181;49.246;7.372;2022-08-02T03:07:35;3.37;;;3.07;;
47429;SDS011;33181;49.246;7.372;2022-08-02T03:10:02;3.40;;;2.60;;
47429;SDS011;33181;49.246;7.372;2022-08-02T03:12:30;6.10;;;2.70;;
47429;SDS011;33181;49.246;7.372;2022-08-02T03:15:02;3.90;;;2.73;;
47429;SDS011;33181;49.246;7.372;2022-08-02T03:17:38;3.50;;;3.10;;
47429;SDS011;33181;49.246;7.372;2022-08-02T03:20:19;3.70;;;2.90;;
47429;SDS011;33181;49.246;7.372;2022-08-02T03:22:46;3.27;;;2.80;;
47429;SDS011;33181;49.246;7.372;2022-08-02T03:25:13;3.33;;;2.80;;
47429;SDS011;33181;49.246;7.372;2022-08-02T03:27:40;3.80;;;2.80;;
47429;SDS011;33181;49.246;7.372;2022-08-02T03:30:07;3.70;;;3.30;;
47429;SDS011;33181;49.246;7.372;2022-08-02T03:32:35;3.10;;;2.80;;
47429;SDS011;33181;49.246;7.372;2022-08-02T03:35:04;4.20;;;3.03;;
47429;SDS011;33181;49.246;7.372;2022-08-02T03:37:33;3.57;;;3.17;;
47429;SDS011;33181;49.246;7.372;2022-08-02T03:40:01;3.27;;;2.93;;
47429;SDS011;33181;49.246;7.372;2022-08-02T03:42:30;3.43;;;3.10;;
47429;SDS011;33181;49.246;7.372;2022-08-02T03:44:56;4.10;;;3.00;;
47429;SDS011;33181;49.246;7.372;2022-08-02T03:47:25;3.30;;;3.00;;
47429;SDS011;33181;49.246;7.372;2022-08-02T03:49:52;3.50;;;3.10;;
47429;SDS011;33181;49.246;7.372;2022-08-02T03:52:19;3.27;;;2.97;;
47429;SDS011;33181;49.246;7.372;2022-08-02T03:54:45;3.00;;;2.70;;
47429;SDS011;33181;49.246;7.372;2022-08-02T03:57:11;4.13;;;2.83;;
47429;SDS011;33181;49.246;7.372;2022-08-02T03:59:39;3.63;;;2.97;;
47429;SDS011;33181;49.246;7.372;2022-08-02T04:02:10;3.37;;;2.93;;
47429;SDS011;33181;49.246;7.372;2022-08-02T04:04:37;5.13;;;2.60;;
47429;SDS011;33181;49.246;7.372;2022-08-02T04:07:03;2.80;;;2.50;;
47429;SDS011;33181;49.246;7.372;2022-08-02T04:09:29;3.10;;;2.70;;
47429;SDS011;33181;49.246;7.372;2022-08-02T04:11:55;3.27;;;2.70;;
47429;SDS011;33181;49.246;7.372;2022-08-02T04:14:20;3.03;;;2.73;;
47429;SDS011;33181;49.246;7.372;2022-08-02T04:16:49;3.30;;;2.90;;
47429;SDS011;33181;49.246;7.372;2022-08-02T04:22:20;3.57;;;2.87;;
47429;SDS011;33181;49.246;7.372;2022-08-02T04:24:57;3.67;;;2.90;;
47429;SDS011;33181;49.246;7.372;2022-08-02T04:27:27;3.23;;;2.90;;
47429;SDS011;33181;49.246;7.372;2022-08-02T04:29:54;3.40;;;2.93;;
47429;SDS011;33181;49.246;7.372;2022-08-02T04:32:21;4.10;;;3.23;;
47429;SDS011;33181;49.246;7.372;2022-08-02T04:34:48;3.53;;;3.20;;
47429;SDS011;33181;49.246;7.372;2022-08-02T04:37:14;5.17;;;3.53;;
47429;SDS011;33181;49.246;7.372;2022-08-02T04:39:40;4.23;;;3.30;;
47429;SDS011;33181;49.246;7.372;2022-08-02T04:42:06;4.30;;;3.47;;
47429;SDS011;33181;49.246;7.372;2022-08-02T04:44:32;8.37;;;3.60;;
47429;SDS011;33181;49.246;7.372;2022-08-02T04:46:59;6.23;;;3.30;;
47429;SDS011;33181;49.246;7.372;2022-08-02T04:49:27;4.60;;;3.23;;
47429;SDS011;33181;49.246;7.372;2022-08-02T04:51:53;4.00;;;3.60;;
47429;SDS011;33181;49.246;7.372;2022-08-02T04:54:19;7.80;;;3.17;;
47429;SDS011;33181;49.246;7.372;2022-08-02T04:56:45;4.53;;;3.33;;
47429;SDS011;33181;49.246;7.372;2022-08-02T04:59:11;5.30;;;2.90;;
47429;SDS011;33181;49.246;7.372;2022-08-02T05:01:37;5.27;;;3.10;;
47429;SDS011;33181;49.246;7.372;2022-08-02T05:04:04;3.30;;;3.00;;
47429;SDS011;33181;49.246;7.372;2022-08-02T05:06:30;4.93;;;3.17;;
47429;SDS011;33181;49.246;7.372;2022-08-02T05:08:56;3.70;;;3.17;;
47429;SDS011;33181;49.246;7.372;2022-08-02T05:11:22;5.63;;;3.70;;
47429;SDS011;33181;49.246;7.372;2022-08-02T05:13:49;6.97;;;3.97;;
47429;SDS011;33181;49.246;7.372;2022-08-02T05:16:14;6.77;;;3.60;;
47429;SDS011;33181;49.246;7.372;2022-08-02T05:18:40;6.50;;;2.93;;
47429;SDS011;33181;49.246;7.372;2022-08-02T05:21:06;8.00;;;3.47;;
47429;SDS011;33181;49.246;7.372;2022-08-02T05:23:32;3.70;;;3.30;;
47429;SDS011;33181;49.246;7.372;2022-08-02T05:25:58;11.40;;;3.53;;
47429;SDS011;33181;49.246;7.372;2022-08-02T05:28:23;4.90;;;3.20;;
47429;SDS011;33181;49.246;7.372;2022-08-02T05:30:49;5.73;;;3.57;;
47429;SDS011;33181;49.246;7.372;2022-08-02T05:33:16;4.20;;;3.30;;
47429;SDS011;33181;49.246;7.372;2022-08-02T05:35:41;5.67;;;3.60;;
47429;SDS011;33181;49.246;7.372;2022-08-02T05:38:07;4.93;;;3.90;;
47429;SDS011;33181;49.246;7.372;2022-08-02T05:40:33;7.97;;;4.00;;
47429;SDS011;33181;49.246;7.372;2022-08-02T05:42:59;6.50;;;3.50;;
47429;SDS011;33181;49.246;7.372;2022-08-02T05:45:25;5.73;;;3.60;;
47429;SDS011;33181;49.246;7.372;2022-08-02T05:47:50;6.93;;;3.77;;
47429;SDS011;33181;49.246;7.372;2022-08-02T05:50:17;5.23;;;4.07;;
47429;SDS011;33181;49.246;7.372;2022-08-02T05:58:02;3.80;;;3.50;;
47429;SDS011;33181;49.246;7.372;2022-08-02T06:00:34;5.00;;;3.50;;
47429;SDS011;33181;49.246;7.372;2022-08-02T06:03:12;3.70;;;3.20;;
47429;SDS011;33181;49.246;7.372;2022-08-02T06:08:38;7.90;;;3.10;;
47429;SDS011;33181;49.246;7.372;2022-08-02T06:11:46;3.93;;;3.30;;
47429;SDS011;33181;49.246;7.372;2022-08-02T06:14:16;5.13;;;4.00;;
47429;SDS011;33181;49.246;7.372;2022-08-02T06:16:43;6.23;;;4.90;;
47429;SDS011;33181;49.246;7.372;2022-08-02T06:19:12;8.40;;;4.50;;
47429;SDS011;33181;49.246;7.372;2022-08-02T06:21:41;5.00;;;4.13;;
47429;SDS011;33181;49.246;7.372;2022-08-02T06:24:09;7.13;;;5.20;;
47429;SDS011;33181;49.246;7.372;2022-08-02T06:26:36;5.37;;;4.67;;
47429;SDS011;33181;49.246;7.372;2022-08-02T06:29:02;5.30;;;4.50;;
47429;SDS011;33181;49.246;7.372;2022-08-02T06:31:28;6.40;;;4.00;;
47429;SDS011;33181;49.246;7.372;2022-08-02T06:33:54;5.60;;;4.70;;
47429;SDS011;33181;49.246;7.372;2022-08-02T06:36:41;5.43;;;3.93;;
47429;SDS011;33181;49.246;7.372;2022-08-02T06:39:20;8.27;;;4.70;;
47429;SDS011;33181;49.246;7.372;2022-08-02T06:41:57;7.10;;;4.80;;
47429;SDS011;33181;49.246;7.372;2022-08-02T06:44:27;5.20;;;4.70;;
47429;SDS011;33181;49.246;7.372;2022-08-02T06:46:53;7.70;;;5.00;;
47429;SDS011;33181;49.246;7.372;2022-08-02T06:49:19;8.00;;;5.00;;
47429;SDS011;33181;49.246;7.372;2022-08-02T06:51:45;5.30;;;4.70;;
47429;SDS011;33181;49.246;7.372;2022-08-02T06:54:11;6.23;;;5.20;;
47429;SDS011;33181;49.246;7.372;2022-08-02T06:56:37;6.50;;;5.30;;
47429;SDS011;33181;49.246;7.372;2022-08-02T06:59:02;5.70;;;4.50;;
47429;SDS011;33181;49.246;7.372;2022-08-02T07:01:28;6.60;;;4.13;;
47429;SDS011;33181;49.246;7.372;2022-08-02T07:03:54;5.30;;;4.80;;
47429;SDS011;33181;49.246;7.372;2022-08-02T07:06:19;6.50;;;4.37;;
47429;SDS011;33181;49.246;7.372;2022-08-02T07:08:45;8.17;;;5.27;;
47429;SDS011;33181;49.246;7.372;2022-08-02T07:11:11;5.90;;;4.73;;
47429;SDS011;33181;49.246;7.372;2022-08-02T07:13:37;8.80;;;5.27;;
47429;SDS011;33181;49.246;7.372;2022-08-02T07:16:03;7.37;;;4.40;;
47429;SDS011;33181;49.246;7.372;2022-08-02T07:18:29;7.73;;;5.03;;
47429;SDS011;33181;49.246;7.372;2022-08-02T07:20:55;9.17;;;4.70;;
47429;SDS011;33181;49.246;7.372;2022-08-02T07:23:21;6.40;;;5.20;;
47429;SDS011;33181;49.246;7.372;2022-08-02T07:25:46;8.80;;;5.00;;
47429;SDS011;33181;49.246;7.372;2022-08-02T07:28:13;4.80;;;4.40;;
47429;SDS011;33181;49.246;7.372;2022-08-02T07:30:41;5.70;;;4.60;;
47429;SDS011;33181;49.246;7.372;2022-08-02T07:33:08;4.33;;;3.93;;
47429;SDS011;33181;49.246;7.372;2022-08-02T07:35:34;4.10;;;3.70;;
47429;SDS011;33181;49.246;7.372;2022-08-02T07:38:00;4.80;;;4.30;;
47429;SDS011;33181;49.246;7.372;2022-08-02T07:40:26;6.07;;;4.37;;
47429;SDS011;33181;49.246;7.372;2022-08-02T07:42:53;4.03;;;3.73;;
47429;SDS011;33181;49.246;7.372;2022-08-02T07:45:21;5.37;;;4.30;;
47429;SDS011;33181;49.246;7.372;2022-08-02T07:47:47;6.93;;;4.37;;
47429;SDS011;33181;49.246;7.372;2022-08-02T07:50:14;5.70;;;4.60;;
47429;SDS011;33181;49.246;7.372;2022-08-02T07:52:42;7.70;;;4.77;;
47429;SDS011;33181;49.246;7.372;2022-08-02T07:55:09;4.97;;;4.50;;
47429;SDS011;33181;49.246;7.372;2022-08-02T07:57:37;6.80;;;4.80;;
47429;SDS011;33181;49.246;7.372;2022-08-02T08:00:05;5.90;;;4.30;;
47429;SDS011;33181;49.246;7.372;2022-08-02T08:02:33;6.30;;;4.50;;
47429;SDS011;33181;49.246;7.372;2022-08-02T08:04:59;4.30;;;3.70;;
47429;SDS011;33181;49.246;7.372;2022-08-02T08:07:26;4.27;;;3.87;;
47429;SDS011;33181;49.246;7.372;2022-08-02T08:09:52;7.70;;;4.50;;
47429;SDS011;33181;49.246;7.372;2022-08-02T08:12:18;4.80;;;3.80;;
47429;SDS011;33181;49.246;7.372;2022-08-02T08:14:44;4.30;;;3.90;;
47429;SDS011;33181;49.246;7.372;2022-08-02T08:17:10;4.10;;;3.70;;
47429;SDS011;33181;49.246;7.372;2022-08-02T08:19:36;5.33;;;4.00;;
47429;SDS011;33181;49.246;7.372;2022-08-02T08:22:01;4.20;;;3.80;;
47429;SDS011;33181;49.246;7.372;2022-08-02T08:24:27;6.13;;;3.90;;
47429;SDS011;33181;49.246;7.372;2022-08-02T08:26:54;5.50;;;3.90;;
47429;SDS011;33181;49.246;7.372;2022-08-02T08:29:20;4.07;;;3.67;;
47429;SDS011;33181;49.246;7.372;2022-08-02T08:31:47;7.20;;;4.00;;
47429;SDS011;33181;49.246;7.372;2022-08-02T08:34:14;3.83;;;3.43;;
47429;SDS011;33181;49.246;7.372;2022-08-02T08:36:40;4.80;;;3.77;;
47429;SDS011;33181;49.246;7.372;2022-08-02T08:39:06;3.93;;;3.63;;
47429;SDS011;33181;49.246;7.372;2022-08-02T08:41:34;4.77;;;3.77;;
47429;SDS011;33181;49.246;7.372;2022-08-02T08:44:00;4.90;;;4.40;;
47429;SDS011;33181;49.246;7.372;2022-08-02T08:46:28;7.03;;;4.40;;
47429;SDS011;33181;49.246;7.372;2022-08-02T08:49:02;5.10;;;4.17;;
47429;SDS011;33181;49.246;7.372;2022-08-02T08:51:37;4.70;;;4.30;;
47429;SDS011;33181;49.246;7.372;2022-08-02T08:54:08;4.80;;;4.30;;
47429;SDS011;33181;49.246;7.372;2022-08-02T08:56:39;4.60;;;4.20;;
47429;SDS011;33181;49.246;7.372;2022-08-02T08:59:07;5.97;;;4.13;;
47429;SDS011;33181;49.246;7.372;2022-08-02T09:01:33;5.67;;;3.90;;
47429;SDS011;33181;49.246;7.372;2022-08-02T09:03:59;4.80;;;3.90;;
47429;SDS011;33181;49.246;7.372;2022-08-02T09:06:25;5.60;;;4.00;;
47429;SDS011;33181;49.246;7.372;2022-08-02T09:08:52;5.07;;;4.20;;
47429;SDS011;33181;49.246;7.372;2022-08-02T09:11:24;4.50;;;4.10;;
47429;SDS011;33181;49.246;7.372;2022-08-02T09:13:57;4.00;;;3.60;;
47429;SDS011;33181;49.246;7.372;2022-08-02T09:18:56;4.50;;;3.87;;
47429;SDS011;33181;49.246;7.372;2022-08-02T09:21:23;4.00;;;3.60;;
47429;SDS011;33181;49.246;7.372;2022-08-02T09:23:58;4.47;;;3.80;;
47429;SDS011;33181;49.246;7.372;2022-08-02T09:26:24;6.90;;;4.10;;
47429;SDS011;33181;49.246;7.372;2022-08-02T09:28:51;4.27;;;3.70;;
47429;SDS011;33181;49.246;7.372;2022-08-02T09:31:23;4.10;;;3.70;;
47429;SDS011;33181;49.246;7.372;2022-08-02T09:33:53;3.90;;;3.47;;
47429;SDS011;33181;49.246;7.372;2022-08-02T09:36:22;4.17;;;3.77;;
47429;SDS011;33181;49.246;7.372;2022-08-02T09:41:26;3.90;;;3.60;;
47429;SDS011;33181;49.246;7.372;2022-08-02T09:43:55;3.70;;;3.30;;
47429;SDS011;33181;49.246;7.372;2022-08-02T09:46:26;3.30;;;3.00;;
47429;SDS011;33181;49.246;7.372;2022-08-02T09:49:07;5.03;;;3.97;;
47429;SDS011;33181;49.246;7.372;2022-08-02T09:51:39;3.83;;;3.53;;
47429;SDS011;33181;49.246;7.372;2022-08-02T09:54:15;5.50;;;3.70;;
47429;SDS011;33181;49.246;7.372;2022-08-02T09:56:48;3.50;;;3.20;;
47429;SDS011;33181;49.246;7.372;2022-08-02T09:59:19;3.60;;;3.30;;
47429;SDS011;33181;49.246;7.372;2022-08-02T10:01:47;3.73;;;3.43;;
47429;SDS011;33181;49.246;7.372;2022-08-02T10:04:14;3.63;;;3.33;;
47429;SDS011;33181;49.246;7.372;2022-08-02T10:06:43;4.07;;;3.20;;
47429;SDS011;33181;49.246;7.372;2022-08-02T10:09:10;4.93;;;3.53;;
47429;SDS011;33181;49.246;7.372;2022-08-02T10:11:36;5.50;;;3.60;;
47429;SDS011;33181;49.246;7.372;2022-08-02T10:14:04;4.20;;;3.80;;
47429;SDS011;33181;49.246;7.372;2022-08-02T10:16:32;3.70;;;3.40;;
47429;SDS011;33181;49.246;7.372;2022-08-02T10:19:00;4.13;;;3.73;;
47429;SDS011;33181;49.246;7.372;2022-08-02T10:21:44;3.50;;;3.20;;
47429;SDS011;33181;49.246;7.372;2022-08-02T10:24:25;3.47;;;3.17;;
47429;SDS011;33181;49.246;7.372;2022-08-02T10:26:54;4.03;;;3.10;;
47429;SDS011;33181;49.246;7.372;2022-08-02T10:29:24;4.30;;;3.00;;
47429;SDS011;33181;49.246;7.372;2022-08-02T10:32:21;3.53;;;3.23;;
47429;SDS011;33181;49.246;7.372;2022-08-02T10:34:56;3.30;;;3.00;;
47429;SDS011;33181;49.246;7.372;2022-08-02T10:37:37;4.67;;;3.07;;
47429;SDS011;33181;49.246;7.372;2022-08-02T10:40:04;6.43;;;3.57;;
47429;SDS011;33181;49.246;7.372;2022-08-02T10:42:47;3.20;;;2.90;;
47429;SDS011;33181;49.246;7.372;2022-08-02T10:45:17;3.00;;;2.70;;
47429;SDS011;33181;49.246;7.372;2022-08-02T10:48:07;4.60;;;2.77;;
47429;SDS011;33181;49.246;7.372;2022-08-02T10:53:26;3.10;;;2.60;;
47429;SDS011;33181;49.246;7.372;2022-08-02T10:56:03;5.17;;;2.83;;
47429;SDS011;33181;49.246;7.372;2022-08-02T10:58:31;3.50;;;2.80;;
47429;SDS011;33181;49.246;7.372;2022-08-02T11:01:05;3.60;;;2.80;;
47429;SDS011;33181;49.246;7.372;2022-08-02T11:04:00;3.57;;;2.70;;
47429;SDS011;33181;49.246;7.372;2022-08-02T11:06:26;4.10;;;2.70;;
47429;SDS011;33181;49.246;7.372;2022-08-02T11:12:07;3.40;;;2.60;;
47429;SDS011;33181;49.246;7.372;2022-08-02T11:14:40;2.90;;;2.70;;
47429;SDS011;33181;49.246;7.372;2022-08-02T11:20:12;5.07;;;2.90;;
47429;SDS011;33181;49.246;7.372;2022-08-02T11:22:37;3.10;;;2.80;;
47429;SDS011;33181;49.246;7.372;2022-08-02T11:30:21;4.93;;;2.60;;
47429;SDS011;33181;49.246;7.372;2022-08-02T11:32:48;3.00;;;2.70;;
47429;SDS011;33181;49.246;7.372;2022-08-02T11:35:14;2.93;;;2.63;;
47429;SDS011;33181;49.246;7.372;2022-08-02T11:37:41;3.17;;;2.70;;
47429;SDS011;33181;49.246;7.372;2022-08-02T11:40:10;2.60;;;2.40;;
47429;SDS011;33181;49.246;7.372;2022-08-02T11:42:40;3.83;;;2.90;;
47429;SDS011;33181;49.246;7.372;2022-08-02T11:45:15;2.90;;;2.63;;
47429;SDS011;33181;49.246;7.372;2022-08-02T11:47:44;3.80;;;2.53;;
47429;SDS011;33181;49.246;7.372;2022-08-02T11:50:15;3.17;;;2.40;;
47429;SDS011;33181;49.246;7.372;2022-08-02T11:52:44;2.90;;;2.70;;
47429;SDS011;33181;49.246;7.372;2022-08-02T11:55:10;2.80;;;2.53;;
47429;SDS011;33181;49.246;7.372;2022-08-02T11:57:38;3.37;;;2.80;;
47429;SDS011;33181;49.246;7.372;2022-08-02T12:00:15;2.90;;;2.70;;
47429;SDS011;33181;49.246;7.372;2022-08-02T12:02:46;3.77;;;2.70;;
47429;SDS011;33181;49.246;7.372;2022-08-02T12:05:15;5.60;;;2.97;;
47429;SDS011;33181;49.246;7.372;2022-08-02T12:07:51;2.60;;;2.40;;
47429;SDS011;33181;49.246;7.372;2022-08-02T12:10:18;3.10;;;2.67;;
47429;SDS011;33181;49.246;7.372;2022-08-02T12:15:28;3.13;;;2.80;;
47429;SDS011;33181;49.246;7.372;2022-08-02T12:18:01;2.80;;;2.60;;
47429;SDS011;33181;49.246;7.372;2022-08-02T12:20:59;3.03;;;2.70;;
47429;SDS011;33181;49.246;7.372;2022-08-02T12:23:26;4.93;;;2.57;;
47429;SDS011;33181;49.246;7.372;2022-08-02T12:26:06;3.70;;;2.60;;
47429;SDS011;33181;49.246;7.372;2022-08-02T12:28:34;3.00;;;2.70;;
47429;SDS011;33181;49.246;7.372;2022-08-02T12:31:04;3.10;;;2.70;;
47429;SDS011;33181;49.246;7.372;2022-08-02T12:33:45;3.97;;;2.93;;
47429;SDS011;33181;49.246;7.372;2022-08-02T12:38:51;4.13;;;2.90;;
47429;SDS011;33181;49.246;7.372;2022-08-02T12:41:25;3.43;;;2.70;;
47429;SDS011;33181;49.246;7.372;2022-08-02T12:43:53;3.80;;;3.07;;
47429;SDS011;33181;49.246;7.372;2022-08-02T12:46:22;3.30;;;3.00;;
47429;SDS011;33181;49.246;7.372;2022-08-02T12:48:48;3.00;;;2.80;;
47429;SDS011;33181;49.246;7.372;2022-08-02T12:51:25;3.50;;;2.67;;
47429;SDS011;33181;49.246;7.372;2022-08-02T12:54:18;4.00;;;2.97;;
47429;SDS011;33181;49.246;7.372;2022-08-02T12:56:47;3.23;;;2.93;;
47429;SDS011;33181;49.246;7.372;2022-08-02T12:59:15;2.80;;;2.60;;
47429;SDS011;33181;49.246;7.372;2022-08-02T13:02:00;3.13;;;2.83;;
47429;SDS011;33181;49.246;7.372;2022-08-02T13:04:32;3.03;;;2.73;;
47429;SDS011;33181;49.246;7.372;2022-08-02T13:06:58;2.80;;;2.60;;
47429;SDS011;33181;49.246;7.372;2022-08-02T13:09:25;3.20;;;2.90;;
47429;SDS011;33181;49.246;7.372;2022-08-02T13:11:51;3.63;;;2.60;;
47429;SDS011;33181;49.246;7.372;2022-08-02T13:14:17;3.20;;;2.90;;
47429;SDS011;33181;49.246;7.372;2022-08-02T13:16:43;3.33;;;2.97;;
47429;SDS011;33181;49.246;7.372;2022-08-02T13:19:10;6.17;;;2.70;;
47429;SDS011;33181;49.246;7.372;2022-08-02T13:21:39;3.23;;;2.93;;
47429;SDS011;33181;49.246;7.372;2022-08-02T13:24:05;3.20;;;2.90;;
47429;SDS011;33181;49.246;7.372;2022-08-02T13:26:32;4.10;;;2.93;;
47429;SDS011;33181;49.246;7.372;2022-08-02T13:28:57;4.40;;;2.90;;
47429;SDS011;33181;49.246;7.372;2022-08-02T13:31:23;3.10;;;2.80;;
47429;SDS011;33181;49.246;7.372;2022-08-02T13:33:49;3.10;;;2.80;;
47429;SDS011;33181;49.246;7.372;2022-08-02T13:36:15;3.17;;;2.87;;
47429;SDS011;33181;49.246;7.372;2022-08-02T13:38:41;3.07;;;2.80;;
47429;SDS011;33181;49.246;7.372;2022-08-02T13:41:06;3.37;;;3.07;;
47429;SDS011;33181;49.246;7.372;2022-08-02T13:43:32;3.00;;;2.70;;
47429;SDS011;33181;49.246;7.372;2022-08-02T13:45:59;3.00;;;2.80;;
47429;SDS011;33181;49.246;7.372;2022-08-02T13:48:25;2.80;;;2.60;;
47429;SDS011;33181;49.246;7.372;2022-08-02T13:50:52;3.20;;;2.90;;
47429;SDS011;33181;49.246;7.372;2022-08-02T13:53:18;4.30;;;3.23;;
47429;SDS011;33181;49.246;7.372;2022-08-02T13:55:44;4.33;;;2.93;;
47429;SDS011;33181;49.246;7.372;2022-08-02T13:58:09;4.50;;;3.30;;
47429;SDS011;33181;49.246;7.372;2022-08-02T14:00:35;3.57;;;3.27;;
47429;SDS011;33181;49.246;7.372;2022-08-02T14:03:02;3.57;;;3.27;;
47429;SDS011;33181;49.246;7.372;2022-08-02T14:05:33;3.80;;;3.40;;
47429;SDS011;33181;49.246;7.372;2022-08-02T14:08:03;3.40;;;3.10;;
47429;SDS011;33181;49.246;7.372;2022-08-02T14:10:29;3.00;;;2.80;;
47429;SDS011;33181;49.246;7.372;2022-08-02T14:12:54;3.43;;;3.13;;
47429;SDS011;33181;49.246;7.372;2022-08-02T14:15:20;9.77;;;3.00;;
47429;SDS011;33181;49.246;7.372;2022-08-02T14:17:46;3.07;;;2.77;;
47429;SDS011;33181;49.246;7.372;2022-08-02T14:20:12;4.50;;;3.07;;
47429;SDS011;33181;49.246;7.372;2022-08-02T14:22:39;3.43;;;3.00;;
47429;SDS011;33181;49.246;7.372;2022-08-02T14:25:05;3.33;;;3.03;;
47429;SDS011;33181;49.246;7.372;2022-08-02T14:27:31;3.50;;;3.20;;
47429;SDS011;33181;49.246;7.372;2022-08-02T14:29:57;3.20;;;2.90;;
47429;SDS011;33181;49.246;7.372;2022-08-02T14:32:24;3.27;;;2.97;;
47429;SDS011;33181;49.246;7.372;2022-08-02T14:34:50;3.50;;;3.20;;
47429;SDS011;33181;49.246;7.372;2022-08-02T14:37:16;3.20;;;2.90;;
47429;SDS011;33181;49.246;7.372;2022-08-02T14:39:42;3.63;;;3.33;;
47429;SDS011;33181;49.246;7.372;2022-08-02T14:42:08;4.93;;;3.63;;
47429;SDS011;33181;49.246;7.372;2022-08-02T14:44:34;5.13;;;3.10;;
47429;SDS011;33181;49.246;7.372;2022-08-02T14:47:00;3.30;;;3.00;;
47429;SDS011;33181;49.246;7.372;2022-08-02T14:49:25;3.50;;;3.20;;
47429;SDS011;33181;49.246;7.372;2022-08-02T14:51:52;3.50;;;3.20;;
47429;SDS011;33181;49.246;7.372;2022-08-02T14:54:18;8.53;;;3.20;;
47429;SDS011;33181;49.246;7.372;2022-08-02T14:56:44;3.53;;;3.13;;
47429;SDS011;33181;49.246;7.372;2022-08-02T14:59:10;3.20;;;2.90;;
47429;SDS011;33181;49.246;7.372;2022-08-02T15:01:36;3.90;;;3.10;;
47429;SDS011;33181;49.246;7.372;2022-08-02T15:04:02;4.20;;;2.90;;
47429;SDS011;33181;49.246;7.372;2022-08-02T15:06:28;3.23;;;2.93;;
47429;SDS011;33181;49.246;7.372;2022-08-02T15:08:57;5.20;;;3.53;;
47429;SDS011;33181;49.246;7.372;2022-08-02T15:11:23;4.30;;;3.47;;
47429;SDS011;33181;49.246;7.372;2022-08-02T15:13:50;3.70;;;3.23;;
47429;SDS011;33181;49.246;7.372;2022-08-02T15:16:16;3.90;;;3.03;;
47429;SDS011;33181;49.246;7.372;2022-08-02T15:18:42;3.20;;;2.90;;
47429;SDS011;33181;49.246;7.372;2022-08-02T15:21:08;3.70;;;3.30;;
47429;SDS011;33181;49.246;7.372;2022-08-02T15:23:35;4.60;;;3.30;;
47429;SDS011;33181;49.246;7.372;2022-08-02T15:26:02;4.40;;;3.07;;
47429;SDS011;33181;49.246;7.372;2022-08-02T15:28:28;3.50;;;3.20;;
47429;SDS011;33181;49.246;7.372;2022-08-02T15:30:55;3.73;;;3.30;;
47429;SDS011;33181;49.246;7.372;2022-08-02T15:33:21;3.50;;;3.20;;
47429;SDS011;33181;49.246;7.372;2022-08-02T15:35:48;3.80;;;3.07;;
47429;SDS011;33181;49.246;7.372;2022-08-02T15:38:14;3.70;;;3.30;;
47429;SDS011;33181;49.246;7.372;2022-08-02T15:40:40;3.70;;;3.00;;
47429;SDS011;33181;49.246;7.372;2022-08-02T15:43:07;4.37;;;2.90;;
47429;SDS011;33181;49.246;7.372;2022-08-02T15:45:34;3.20;;;2.90;;
47429;SDS011;33181;49.246;7.372;2022-08-02T15:48:00;3.57;;;3.27;;